Time;durP1;ratioP1;P1;durP2;ratioP2;P2;SDS_P1;SDS_P2;PMS_P1;PMS_P2;Temp;Humidity;BMP_temperature;BMP_pressure;BME280_temperature;BME280_humidity;BME280_pressure;Samples;Min_cycle;Max_cycle;Signal;HPM_P1;HPM_P2
2021/03/22 00:02:00;;;;;;;19.37;4.77;;;6.50;85.00;;;;;;5073073;28;20446;-66
2021/03/22 00:04:26;;;;;;;20.33;4.30;;;6.60;85.10;;;;;;5073754;28;20360;-66
2021/03/22 00:06:51;;;;;;;17.97;4.23;;;6.60;85.00;;;;;;5073359;28;20051;-66
2021/03/22 00:09:17;;;;;;;23.83;4.70;;;6.60;85.30;;;;;;5073637;28;20044;-66
2021/03/22 00:11:43;;;;;;;21.97;5.70;;;6.60;85.10;;;;;;5073656;28;20484;-66
2021/03/22 00:14:08;;;;;;;22.40;5.00;;;6.60;85.30;;;;;;5073229;28;20097;-66
2021/03/22 00:16:34;;;;;;;18.50;5.53;;;6.70;85.50;;;;;;5074082;28;20481;-66
2021/03/22 00:18:59;;;;;;;23.93;5.10;;;6.70;85.30;;;;;;5073208;28;20052;-67
2021/03/22 00:21:25;;;;;;;17.17;5.20;;;6.70;85.20;;;;;;5072164;28;20051;-66
2021/03/22 00:23:50;;;;;;;21.87;5.37;;;6.60;85.30;;;;;;5073464;28;20067;-67
2021/03/22 00:26:16;;;;;;;22.90;5.03;;;6.60;85.60;;;;;;5073623;28;20127;-67
2021/03/22 00:28:42;;;;;;;12.47;4.60;;;6.70;85.60;;;;;;5072815;28;20477;-67
2021/03/22 00:31:13;;;;;;;22.37;5.80;;;6.70;85.80;;;;;;5073161;28;20048;-67
2021/03/22 00:33:39;;;;;;;21.15;5.82;;;6.70;85.80;;;;;;5073351;28;20135;-67
2021/03/22 00:36:06;;;;;;;17.50;5.60;;;6.80;85.80;;;;;;5072600;28;20175;-66
2021/03/22 00:38:32;;;;;;;19.37;6.20;;;6.80;85.80;;;;;;5073726;28;20088;-66
2021/03/22 00:40:58;;;;;;;18.77;5.77;;;6.80;85.60;;;;;;5073176;28;20753;-67
2021/03/22 00:43:24;;;;;;;21.10;6.33;;;6.80;85.60;;;;;;5072574;28;20301;-66
2021/03/22 00:46:01;;;;;;;32.10;6.17;;;6.80;85.60;;;;;;5073185;28;20420;-66
2021/03/22 00:48:31;;;;;;;18.53;6.10;;;6.80;85.60;;;;;;5073450;28;20290;-66
2021/03/22 00:50:57;;;;;;;19.27;6.40;;;6.90;85.50;;;;;;5072314;28;20425;-67
2021/03/22 00:53:24;;;;;;;25.20;6.37;;;6.90;85.40;;;;;;5072897;28;20757;-67
2021/03/22 00:55:50;;;;;;;19.93;5.83;;;6.90;85.20;;;;;;5072902;28;20291;-67
2021/03/22 00:58:16;;;;;;;18.60;6.03;;;6.90;85.10;;;;;;5072122;28;20302;-66
2021/03/22 01:00:43;;;;;;;25.57;6.43;;;6.90;85.10;;;;;;5072568;28;20295;-66
2021/03/22 01:03:16;;;;;;;21.30;6.67;;;6.90;85.10;;;;;;5071891;28;20052;-66
2021/03/22 01:05:43;;;;;;;19.67;6.33;;;6.90;85.00;;;;;;5072833;28;20290;-66
2021/03/22 01:08:09;;;;;;;19.70;6.27;;;6.90;85.00;;;;;;5072678;28;20303;-66
2021/03/22 01:10:39;;;;;;;18.43;6.30;;;6.90;85.20;;;;;;5072201;28;20311;-66
2021/03/22 01:13:09;;;;;;;22.07;6.87;;;6.90;85.10;;;;;;5072620;28;20290;-66
2021/03/22 01:15:34;;;;;;;28.50;6.87;;;6.90;85.10;;;;;;5072622;28;20301;-66
2021/03/22 01:18:00;;;;;;;20.53;6.03;;;6.80;85.10;;;;;;5071692;28;20303;-66
2021/03/22 01:20:48;;;;;;;28.17;6.73;;;6.80;85.10;;;;;;5072434;28;20052;-66
2021/03/22 01:23:14;;;;;;;24.87;7.17;;;6.80;85.20;;;;;;5072420;28;20307;-66
2021/03/22 01:25:41;;;;;;;20.33;6.10;;;6.90;85.30;;;;;;5071512;28;20310;-66
2021/03/22 01:28:10;;;;;;;23.23;7.53;;;6.90;85.00;;;;;;5072313;28;20302;-66
2021/03/22 01:31:00;;;;;;;20.17;6.07;;;7.00;85.00;;;;;;5072134;28;20381;-66
2021/03/22 01:33:29;;;;;;;22.10;5.67;;;6.90;84.80;;;;;;5071315;28;20759;-66
2021/03/22 01:36:02;;;;;;;22.73;5.63;;;6.80;84.70;;;;;;5072147;28;20353;-66
2021/03/22 01:38:28;;;;;;;25.73;6.63;;;6.80;84.80;;;;;;5071475;28;20698;-66
2021/03/22 01:41:22;;;;;;;22.17;5.37;;;6.80;84.80;;;;;;5071819;28;20849;-66
2021/03/22 01:44:18;;;;;;;21.50;5.23;;;6.80;84.80;;;;;;5071749;28;20739;-66
2021/03/22 01:47:07;;;;;;;18.87;5.10;;;6.70;84.80;;;;;;5071027;28;20382;-66
2021/03/22 01:49:43;;;;;;;16.70;5.03;;;6.70;84.90;;;;;;5071858;28;20783;-67
2021/03/22 01:52:10;;;;;;;23.00;5.80;;;6.80;84.90;;;;;;5071828;28;20310;-66
2021/03/22 01:54:37;;;;;;;19.70;4.67;;;6.80;84.50;;;;;;5071194;28;20730;-66
2021/03/22 01:57:33;;;;;;;22.37;5.17;;;6.80;84.40;;;;;;5071318;28;20338;-66
2021/03/22 02:00:08;;;;;;;16.17;3.93;;;6.80;84.70;;;;;;5070782;28;20834;-66
2021/03/22 02:02:34;;;;;;;15.77;4.50;;;6.70;84.60;;;;;;5072007;28;20363;-66
2021/03/22 02:05:02;;;;;;;18.57;5.00;;;6.70;84.60;;;;;;5071439;28;20656;-66
2021/03/22 02:07:30;;;;;;;19.47;5.57;;;6.70;84.80;;;;;;5071164;28;20302;-66
2021/03/22 02:09:56;;;;;;;19.00;4.10;;;6.70;84.70;;;;;;5071368;28;20290;-66
2021/03/22 02:12:22;;;;;;;13.03;3.93;;;6.70;84.80;;;;;;5071492;28;20840;-66
2021/03/22 02:14:49;;;;;;;14.40;4.80;;;6.70;84.70;;;;;;5070832;28;20442;-66
2021/03/22 02:17:28;;;;;;;21.30;4.60;;;6.70;84.70;;;;;;5071683;28;20392;-66
2021/03/22 02:20:33;;;;;;;19.50;4.10;;;6.60;84.90;;;;;;5071588;28;20349;-66
2021/03/22 02:23:36;;;;;;;20.87;4.77;;;6.60;85.30;;;;;;5071581;28;20302;-66
2021/03/22 02:26:31;;;;;;;16.73;4.10;;;6.60;85.40;;;;;;5071175;28;20295;-66
2021/03/22 02:28:59;;;;;;;16.07;3.80;;;6.50;85.40;;;;;;5070527;28;20298;-66
2021/03/22 02:31:34;;;;;;;22.17;4.87;;;6.50;85.90;;;;;;5071221;28;20322;-66
2021/03/22 02:34:02;;;;;;;17.63;3.63;;;6.60;86.00;;;;;;5071426;28;20307;-66
2021/03/22 02:37:09;;;;;;;18.60;4.50;;;6.60;86.00;;;;;;5070793;28;20294;-66
2021/03/22 02:39:50;;;;;;;18.77;4.07;;;6.60;86.70;;;;;;5071195;28;20359;-66
2021/03/22 02:42:16;;;;;;;18.03;3.70;;;6.50;86.40;;;;;;5070639;28;20303;-67
2021/03/22 02:44:42;;;;;;;21.43;4.03;;;6.40;86.60;;;;;;5075397;28;20301;-66
2021/03/22 02:47:24;;;;;;;20.00;3.70;;;6.40;87.10;;;;;;5075216;28;20740;-66
2021/03/22 02:49:52;;;;;;;22.43;3.77;;;6.30;87.50;;;;;;5074664;28;20057;-67
2021/03/22 02:52:56;;;;;;;18.50;4.00;;;6.20;88.00;;;;;;5075413;28;20368;-66
2021/03/22 02:55:34;;;;;;;15.90;3.13;;;6.20;88.90;;;;;;5075238;28;20314;-66
2021/03/22 02:58:05;;;;;;;13.43;2.90;;;6.20;88.40;;;;;;5074339;28;20715;-66
2021/03/22 03:00:38;;;;;;;12.30;2.73;;;6.10;88.30;;;;;;5075572;28;20408;-66
2021/03/22 03:03:08;;;;;;;19.17;3.90;;;6.10;88.50;;;;;;5074482;28;20330;-67
2021/03/22 03:05:34;;;;;;;18.50;2.67;;;6.00;88.50;;;;;;5075425;28;20302;-66
2021/03/22 03:08:04;;;;;;;18.80;4.10;;;6.00;88.50;;;;;;5074995;28;20364;-66
2021/03/22 03:10:30;;;;;;;19.00;2.97;;;6.00;88.30;;;;;;5074385;28;20055;-66
2021/03/22 03:12:56;;;;;;;14.43;3.40;;;6.00;88.80;;;;;;5075016;28;20291;-66
2021/03/22 03:15:22;;;;;;;16.07;3.60;;;6.00;88.90;;;;;;5074836;28;20080;-66
2021/03/22 03:17:49;;;;;;;18.23;3.07;;;6.00;88.70;;;;;;5074149;28;20052;-66
2021/03/22 03:20:22;;;;;;;19.73;3.13;;;6.00;88.80;;;;;;5074794;28;20301;-66
2021/03/22 03:22:48;;;;;;;12.13;3.23;;;6.00;88.90;;;;;;5074470;28;20290;-66
2021/03/22 03:25:15;;;;;;;10.17;3.13;;;6.10;88.90;;;;;;5073847;28;20306;-66
2021/03/22 03:27:40;;;;;;;17.60;3.43;;;6.00;88.70;;;;;;5074385;28;20501;-66
2021/03/22 03:30:09;;;;;;;14.43;2.73;;;6.10;88.80;;;;;;5074439;28;20327;-66
2021/03/22 03:32:34;;;;;;;17.53;2.77;;;6.10;88.90;;;;;;5073892;28;20499;-66
2021/03/22 03:35:00;;;;;;;12.93;2.50;;;6.10;89.00;;;;;;5074369;28;20327;-66
2021/03/22 03:37:26;;;;;;;13.33;2.43;;;6.20;88.60;;;;;;5074302;28;20055;-66
2021/03/22 03:39:52;;;;;;;20.83;2.83;;;6.10;88.60;;;;;;5073591;28;20377;-67
2021/03/22 03:42:17;;;;;;;12.27;1.93;;;6.10;88.90;;;;;;5074364;28;20049;-66
2021/03/22 03:44:43;;;;;;;7.67;2.50;;;6.10;89.10;;;;;;5074255;28;20132;-67
2021/03/22 03:47:09;;;;;;;15.67;2.60;;;6.10;89.10;;;;;;5073330;28;20465;-66
2021/03/22 03:49:35;;;;;;;12.77;2.60;;;6.10;89.20;;;;;;5074170;28;20041;-66
2021/03/22 03:52:02;;;;;;;11.13;2.37;;;6.10;89.30;;;;;;5073278;28;20725;-66
2021/03/22 03:54:28;;;;;;;13.37;2.57;;;6.10;89.20;;;;;;5073266;28;20048;-66
2021/03/22 03:56:54;;;;;;;18.37;2.70;;;6.20;89.20;;;;;;5074118;28;20772;-66
2021/03/22 03:59:19;;;;;;;8.53;2.07;;;6.20;89.20;;;;;;5073222;28;20154;-66
2021/03/22 04:01:45;;;;;;;15.70;2.43;;;6.20;89.10;;;;;;5074023;28;20076;-66
2021/03/22 04:04:10;;;;;;;12.00;2.20;;;6.20;89.20;;;;;;5073857;28;20055;-66
2021/03/22 04:06:37;;;;;;;11.50;2.50;;;6.20;89.10;;;;;;5073159;28;20413;-67
2021/03/22 04:09:09;;;;;;;7.97;1.90;;;6.20;89.10;;;;;;5073706;28;20295;-66
2021/03/22 04:11:44;;;;;;;6.90;2.33;;;6.20;89.00;;;;;;5074030;28;20053;-66
2021/03/22 04:14:26;;;;;;;8.73;2.27;;;6.30;88.90;;;;;;5072986;28;20389;-66
2021/03/22 04:16:51;;;;;;;12.30;2.40;;;6.20;88.70;;;;;;5073597;28;20286;-66
2021/03/22 04:19:18;;;;;;;10.37;2.53;;;6.20;88.80;;;;;;5073656;28;20054;-66
2021/03/22 04:21:45;;;;;;;14.70;2.67;;;6.20;88.70;;;;;;5073074;28;20086;-66
2021/03/22 04:24:13;;;;;;;11.17;2.43;;;6.20;88.60;;;;;;5073736;28;20377;-66
2021/03/22 04:26:39;;;;;;;13.80;2.50;;;6.20;88.80;;;;;;5073465;28;20883;-66
2021/03/22 04:29:05;;;;;;;16.07;2.90;;;6.10;88.70;;;;;;5072682;28;20323;-66
2021/03/22 04:31:31;;;;;;;11.67;2.23;;;6.20;88.90;;;;;;5073434;28;20127;-66
2021/03/22 04:33:58;;;;;;;12.23;2.93;;;6.20;88.90;;;;;;5073505;28;20291;-66
2021/03/22 04:36:30;;;;;;;11.50;2.20;;;6.20;88.90;;;;;;5072719;28;20394;-66
2021/03/22 04:38:56;;;;;;;8.20;2.60;;;6.20;88.70;;;;;;5073601;28;20368;-66
2021/03/22 04:41:22;;;;;;;14.20;2.67;;;6.30;88.50;;;;;;5072387;28;20063;-66
2021/03/22 04:43:49;;;;;;;12.43;2.10;;;6.30;88.40;;;;;;5073266;28;20311;-67
2021/03/22 04:46:15;;;;;;;11.10;2.33;;;6.40;88.50;;;;;;5072973;28;20717;-66
2021/03/22 04:48:40;;;;;;;8.97;2.20;;;6.40;88.40;;;;;;5072385;28;20383;-66
2021/03/22 04:51:06;;;;;;;9.27;1.90;;;6.40;88.60;;;;;;5072858;28;20091;-66
2021/03/22 04:53:33;;;;;;;10.83;1.83;;;6.40;88.60;;;;;;5073414;28;20056;-66
2021/03/22 04:55:59;;;;;;;18.37;3.50;;;6.40;88.60;;;;;;5072292;28;20094;-66
2021/03/22 04:58:24;;;;;;;7.77;1.97;;;6.40;88.50;;;;;;5072859;28;20819;-66
2021/03/22 05:00:50;;;;;;;12.63;2.60;;;6.40;88.60;;;;;;5072575;28;20303;-66
2021/03/22 05:03:18;;;;;;;10.10;2.30;;;6.40;88.70;;;;;;5071908;28;20067;-66
2021/03/22 05:05:45;;;;;;;12.87;2.43;;;6.40;88.70;;;;;;5072338;28;20085;-66
2021/03/22 05:08:13;;;;;;;11.70;2.80;;;6.40;88.70;;;;;;5072862;28;20348;-66
2021/03/22 05:10:42;;;;;;;9.27;2.40;;;6.40;88.90;;;;;;5071973;28;20385;-66
2021/03/22 05:13:10;;;;;;;12.40;2.43;;;6.40;89.10;;;;;;5072638;28;20379;-66
2021/03/22 05:15:36;;;;;;;11.47;3.07;;;6.40;88.80;;;;;;5072920;28;20303;-66
2021/03/22 05:18:03;;;;;;;12.30;2.93;;;6.40;88.80;;;;;;5071293;28;20621;-66
2021/03/22 05:20:50;;;;;;;11.70;2.40;;;6.30;88.60;;;;;;5072791;28;20306;-66
2021/03/22 05:23:19;;;;;;;12.10;1.93;;;6.30;88.70;;;;;;5072391;28;20322;-66
2021/03/22 05:25:44;;;;;;;8.20;2.50;;;6.20;88.60;;;;;;5071594;28;20298;-66
2021/03/22 05:28:11;;;;;;;8.90;1.90;;;6.10;88.60;;;;;;5072496;28;20400;-66
2021/03/22 05:30:38;;;;;;;7.70;1.90;;;6.20;88.70;;;;;;5071908;28;20044;-66
2021/03/22 05:33:10;;;;;;;12.03;2.70;;;6.20;88.60;;;;;;5072223;28;20302;-66
2021/03/22 05:35:37;;;;;;;5.40;1.52;;;6.20;88.40;;;;;;5072333;28;20310;-66
2021/03/22 05:38:05;;;;;;;7.27;2.20;;;6.20;88.10;;;;;;5070898;28;20496;-66
2021/03/22 05:40:50;;;;;;;8.37;1.63;;;6.20;87.90;;;;;;5072456;28;20299;-66
2021/03/22 05:43:40;;;;;;;7.90;1.93;;;6.10;87.70;;;;;;5072360;28;20297;-66
2021/03/22 05:46:16;;;;;;;8.17;2.07;;;6.10;87.60;;;;;;5071267;28;20364;-67
2021/03/22 05:49:01;;;;;;;6.03;1.73;;;6.10;87.50;;;;;;5071707;28;20299;-66
2021/03/22 05:52:00;;;;;;;12.17;2.33;;;6.10;87.60;;;;;;5071786;28;20397;-67
2021/03/22 05:55:02;;;;;;;11.87;2.20;;;6.20;87.50;;;;;;5071757;28;20294;-67
2021/03/22 05:58:02;;;;;;;9.63;2.50;;;6.20;87.30;;;;;;5070835;28;20348;-67
2021/03/22 06:00:55;;;;;;;9.87;1.67;;;6.30;87.30;;;;;;5070335;28;20389;-66
2021/03/22 06:03:29;;;;;;;9.30;1.60;;;6.30;87.30;;;;;;5071665;28;20359;-67
2021/03/22 06:06:22;;;;;;;8.43;2.10;;;6.30;87.30;;;;;;5070935;28;20314;-66
2021/03/22 06:08:55;;;;;;;7.97;2.00;;;6.40;87.20;;;;;;5071522;28;20344;-67
2021/03/22 06:11:27;;;;;;;;;;;6.40;87.30;;;;;;5071897;28;20372;-67
2021/03/22 06:14:01;;;;;;;9.30;2.07;;;6.40;87.00;;;;;;5070703;28;20288;-66
2021/03/22 06:16:34;;;;;;;10.50;2.37;;;6.50;87.20;;;;;;5071768;28;20291;-66
2021/03/22 06:19:07;;;;;;;8.77;1.87;;;6.40;87.10;;;;;;5070694;28;20377;-66
2021/03/22 06:21:36;;;;;;;10.93;1.77;;;6.50;86.90;;;;;;5070802;28;20775;-66
2021/03/22 06:24:27;;;;;;;7.40;1.67;;;6.50;86.60;;;;;;5070932;28;20299;-66
2021/03/22 06:26:58;;;;;;;8.63;1.93;;;6.40;86.30;;;;;;5070469;28;20334;-66
2021/03/22 06:29:33;;;;;;;12.15;1.95;;;6.40;86.40;;;;;;5071345;28;20298;-66
2021/03/22 06:32:09;;;;;;;5.77;1.53;;;6.40;86.40;;;;;;5071339;28;20056;-66
2021/03/22 06:35:00;;;;;;;7.90;2.40;;;6.50;86.70;;;;;;5070674;28;20295;-66
2021/03/22 06:37:32;;;;;;;9.10;2.40;;;6.60;86.50;;;;;;5071238;28;20314;-66
2021/03/22 06:40:25;;;;;;;6.53;1.73;;;6.70;86.20;;;;;;5071159;28;20460;-66
2021/03/22 06:43:07;;;;;;;11.93;2.00;;;6.70;86.00;;;;;;5069987;28;20497;-66
2021/03/22 06:45:45;;;;;;;9.63;2.20;;;6.70;86.20;;;;;;5071263;28;20313;-65
2021/03/22 06:48:17;;;;;;;14.13;2.37;;;6.70;86.30;;;;;;5068734;28;20451;-66
2021/03/22 06:50:44;;;;;;;6.97;2.10;;;6.60;86.50;;;;;;5068604;28;20389;-66
2021/03/22 06:53:11;;;;;;;11.10;1.83;;;6.60;86.60;;;;;;5070899;28;20294;-66
2021/03/22 06:55:39;;;;;;;6.17;1.87;;;6.60;86.60;;;;;;5070281;28;20791;-65
2021/03/22 06:58:06;;;;;;;13.57;2.50;;;6.70;86.70;;;;;;5071212;28;20734;-66
2021/03/22 07:00:34;;;;;;;7.93;1.77;;;6.70;86.10;;;;;;5071249;28;20322;-65
2021/03/22 07:03:03;;;;;;;10.67;2.37;;;6.70;86.20;;;;;;5070299;28;20306;-66
2021/03/22 07:05:36;;;;;;;9.03;2.00;;;6.80;85.70;;;;;;5071190;28;20922;-66
2021/03/22 07:08:17;;;;;;;9.30;1.73;;;6.80;85.60;;;;;;5070537;28;20310;-65
2021/03/22 07:10:44;;;;;;;6.45;1.65;;;6.80;85.40;;;;;;5070082;28;20313;-66
2021/03/22 07:13:30;;;;;;;11.27;2.00;;;6.80;85.50;;;;;;5070737;28;20077;-65
2021/03/22 07:16:12;;;;;;;9.87;2.10;;;6.80;85.20;;;;;;5070162;28;20301;-66
2021/03/22 07:18:37;;;;;;;11.50;1.77;;;6.70;85.30;;;;;;5071352;28;20368;-66
2021/03/22 07:21:12;;;;;;;9.93;2.10;;;6.70;85.10;;;;;;5070669;28;20481;-66
2021/03/22 07:23:44;;;;;;;10.93;2.10;;;6.70;85.30;;;;;;5070511;28;20063;-66
2021/03/22 07:26:21;;;;;;;6.73;2.27;;;6.80;85.50;;;;;;5070647;28;20352;-66
2021/03/22 07:29:04;;;;;;;11.30;2.17;;;6.80;85.20;;;;;;5070912;28;20294;-66
2021/03/22 07:31:54;;;;;;;10.57;2.20;;;6.90;85.30;;;;;;5074124;28;20393;-66
2021/03/22 07:34:35;;;;;;;8.87;1.70;;;6.90;85.50;;;;;;5074221;28;20730;-67
2021/03/22 07:37:23;;;;;;;6.37;1.70;;;6.90;85.80;;;;;;5073652;28;20306;-67
2021/03/22 07:40:11;;;;;;;5.80;1.70;;;7.00;85.40;;;;;;5074342;28;20373;-66
2021/03/22 07:42:46;;;;;;;7.33;2.00;;;7.00;85.00;;;;;;5074548;28;20302;-66
2021/03/22 07:45:11;;;;;;;7.87;1.90;;;7.10;85.20;;;;;;5073178;28;20806;-66
2021/03/22 07:47:55;;;;;;;9.13;1.93;;;7.20;85.30;;;;;;5074203;28;20299;-66
2021/03/22 07:50:29;;;;;;;11.63;1.80;;;7.40;84.80;;;;;;5073804;28;20052;-66
2021/03/22 07:53:07;;;;;;;12.80;2.47;;;7.60;84.60;;;;;;5073156;28;20716;-66
2021/03/22 07:55:44;;;;;;;8.00;1.60;;;7.70;83.50;;;;;;5073994;28;20329;-66
2021/03/22 07:58:37;;;;;;;12.43;1.87;;;7.80;82.80;;;;;;5073430;28;20295;-66
2021/03/22 08:01:42;;;;;;;5.77;1.30;;;7.70;82.10;;;;;;5072731;28;20381;-68
2021/03/22 08:04:43;;;;;;;7.03;1.47;;;7.80;81.20;;;;;;5071859;28;20298;-67
2021/03/22 08:07:33;;;;;;;8.35;1.70;;;7.80;81.10;;;;;;5071129;28;20291;-67
2021/03/22 08:10:17;;;;;;;8.87;1.80;;;7.80;81.00;;;;;;5070591;28;20052;-67
2021/03/22 08:13:03;;;;;;;10.50;1.73;;;7.80;81.20;;;;;;5069757;28;20364;-67
2021/03/22 08:15:52;;;;;;;8.90;1.90;;;7.60;79.90;;;;;;5072355;28;20794;-68
2021/03/22 08:18:23;;;;;;;8.43;1.50;;;7.40;79.50;;;;;;5070250;28;20328;-69
2021/03/22 08:21:10;;;;;;;7.90;1.63;;;7.30;80.90;;;;;;5071344;28;20786;-68
2021/03/22 08:23:43;;;;;;;6.50;2.10;;;7.30;80.90;;;;;;5070922;28;20127;-68
2021/03/22 08:26:21;;;;;;;10.20;2.60;;;7.20;81.30;;;;;;5073254;28;20310;-68
2021/03/22 08:29:03;;;;;;;10.67;1.63;;;7.10;81.30;;;;;;5073516;28;20350;-68
2021/03/22 08:31:44;;;;;;;6.95;1.17;;;7.10;81.70;;;;;;5073441;28;20809;-67
2021/03/22 08:34:18;;;;;;;11.48;1.92;;;7.20;81.80;;;;;;5072580;28;20056;-69
2021/03/22 08:37:07;;;;;;;8.70;1.77;;;7.20;81.80;;;;;;5073246;28;20132;-67
2021/03/22 08:39:54;;;;;;;6.97;1.50;;;7.20;81.70;;;;;;5073378;28;20327;-68
2021/03/22 08:42:27;;;;;;;10.63;1.83;;;7.20;81.70;;;;;;5071999;28;20299;-69
2021/03/22 08:45:09;;;;;;;9.23;1.40;;;7.30;81.90;;;;;;5073066;28;20295;-69
2021/03/22 08:47:41;;;;;;;;;;;7.30;81.50;;;;;;5072757;28;20290;-69
2021/03/22 08:50:12;;;;;;;;;;;7.20;81.80;;;;;;5073111;28;20003;-69
2021/03/22 08:52:46;;;;;;;;;;;7.20;82.80;;;;;;5073686;28;19978;-69
2021/03/22 08:55:16;;;;;;;;;;;7.20;83.30;;;;;;5072694;28;20364;-69
2021/03/22 08:58:00;;;;;;;;;;;7.20;83.10;;;;;;5073418;28;19923;-68
2021/03/22 09:00:26;;;;;;;;;;;7.20;84.30;;;;;;5073335;28;19978;-70
2021/03/22 09:02:53;;;;;;;;;;;7.10;84.00;;;;;;5072532;28;20377;-69
2021/03/22 09:05:20;;;;;;;;;;;7.10;84.50;;;;;;5073428;28;19921;-69
2021/03/22 09:07:46;;;;;;;;;;;7.20;84.90;;;;;;5073196;28;19920;-69
2021/03/22 09:10:21;;;;;;;;;;;7.30;84.50;;;;;;5072325;28;20391;-69
2021/03/22 09:12:47;;;;;;;;;;;7.50;82.70;;;;;;5072986;28;19950;-70
2021/03/22 09:15:31;;;;;;;;;;;7.60;82.20;;;;;;5073057;28;19920;-70
2021/03/22 09:18:00;;;;;;;;;;;7.60;80.50;;;;;;5072734;28;20431;-70
2021/03/22 09:20:53;;;;;;;;;;;7.60;80.10;;;;;;5073215;28;19948;-70
2021/03/22 09:23:34;;;;;;;;;;;7.60;80.10;;;;;;5071786;28;19927;-69
2021/03/22 09:26:02;;;;;;;;;;;7.60;80.50;;;;;;5072831;28;19920;-69
2021/03/22 09:28:27;;;;;;;;;;;7.50;81.30;;;;;;5072943;28;19929;-69
2021/03/22 09:30:55;;;;;;;;;;;7.40;81.20;;;;;;5071655;28;19994;-70
2021/03/22 09:33:47;;;;;;;;;;;7.30;81.20;;;;;;5072457;28;19982;-69
2021/03/22 09:36:23;;;;;;;;;;;7.20;81.40;;;;;;5072548;28;19921;-69
2021/03/22 09:38:49;;;;;;;;;;;7.30;82.00;;;;;;5071775;28;20032;-70
2021/03/22 09:41:15;;;;;;;;;;;7.30;82.00;;;;;;5072364;28;20001;-70
2021/03/22 09:43:42;;;;;;;;;;;7.20;82.00;;;;;;5071333;28;19939;-70
2021/03/22 09:46:26;;;;;;;;;;;7.20;82.10;;;;;;5072141;28;20026;-70
2021/03/22 09:49:08;;;;;;;;;;;7.20;82.60;;;;;;5072327;28;19924;-70
2021/03/22 09:51:40;;;;;;;;;;;7.20;81.70;;;;;;5071588;28;19920;-70
2021/03/22 09:54:17;;;;;;;;;;;7.20;81.00;;;;;;5071844;28;19921;-69
2021/03/22 09:57:02;;;;;;;;;;;7.20;79.90;;;;;;5071964;28;19927;-68
2021/03/22 09:59:35;;;;;;;;;;;7.20;79.40;;;;;;5071579;28;19962;-69
2021/03/22 10:02:20;;;;;;;;;;;7.20;77.80;;;;;;5072127;28;19969;-69
2021/03/22 10:05:04;;;;;;;;;;;7.20;78.20;;;;;;5071259;28;19949;-68
2021/03/22 10:07:30;;;;;;;;;;;7.30;77.90;;;;;;5072303;28;19921;-68
2021/03/22 10:10:01;;;;;;;;;;;7.40;78.60;;;;;;5071939;28;20435;-68
2021/03/22 10:12:27;;;;;;;;;;;7.40;78.60;;;;;;5071450;28;19920;-68
2021/03/22 10:15:05;;;;;;;;;;;7.50;79.60;;;;;;5071994;28;19989;-69
2021/03/22 10:17:34;;;;;;;;;;;7.60;79.10;;;;;;5071973;28;19930;-68
2021/03/22 10:20:02;;;;;;;;;;;7.70;78.50;;;;;;5071178;28;19973;-69
2021/03/22 10:22:28;;;;;;;;;;;7.90;78.00;;;;;;5072009;28;19920;-69
2021/03/22 10:25:05;;;;;;;;;;;8.00;77.90;;;;;;5071929;28;19927;-68
2021/03/22 10:27:35;;;;;;;;;;;8.20;76.60;;;;;;5071604;28;19928;-69
2021/03/22 10:30:21;;;;;;;;;;;8.30;75.00;;;;;;5071869;28;19928;-68
2021/03/22 10:32:52;;;;;;;;;;;8.30;73.70;;;;;;5071758;28;19921;-69
2021/03/22 10:35:20;;;;;;;;;;;8.30;69.70;;;;;;5071565;28;19932;-69
2021/03/22 10:37:45;;;;;;;;;;;8.30;70.40;;;;;;5071719;28;19920;-69
2021/03/22 10:40:31;;;;;;;;;;;8.30;72.00;;;;;;5070789;28;20363;-69
2021/03/22 10:42:57;;;;;;;;;;;8.40;71.60;;;;;;5071789;28;20007;-68
2021/03/22 10:45:22;;;;;;;;;;;8.50;70.20;;;;;;5071937;28;19920;-69
2021/03/22 10:47:48;;;;;;;;;;;8.60;68.60;;;;;;5070925;28;19927;-69
2021/03/22 10:50:14;;;;;;;;;;;8.50;69.70;;;;;;5071295;28;20258;-69
2021/03/22 10:52:39;;;;;;;;;;;8.50;71.50;;;;;;5071333;28;19927;-69
2021/03/22 10:55:05;;;;;;;;;;;8.40;69.50;;;;;;5070661;28;20354;-69
2021/03/22 10:57:33;;;;;;;;;;;8.40;68.30;;;;;;5071717;28;19924;-68
2021/03/22 11:00:00;;;;;;;;;;;8.20;67.80;;;;;;5071259;28;19931;-68
2021/03/22 11:02:32;;;;;;;;;;;8.30;70.80;;;;;;5070949;28;19932;-68
2021/03/22 11:05:03;;;;;;;;;;;8.30;70.40;;;;;;5073263;28;20387;-68
2021/03/22 11:07:28;;;;;;;;;;;8.30;67.20;;;;;;5075683;28;19975;-68
2021/03/22 11:09:59;;;;;;;;;;;8.50;68.80;;;;;;5074538;28;20330;-68
2021/03/22 11:12:25;;;;;;;;;;;8.50;67.50;;;;;;5075428;28;19920;-68
2021/03/22 11:14:57;;;;;;;;;;;8.60;68.90;;;;;;5075476;28;19924;-68
2021/03/22 11:17:27;;;;;;;;;;;8.70;70.50;;;;;;5074648;28;19974;-68
2021/03/22 11:19:53;;;;;;;;;;;8.80;68.80;;;;;;5074852;28;19921;-68
2021/03/22 11:22:21;;;;;;;;;;;8.90;67.50;;;;;;5074301;28;19920;-69
2021/03/22 11:24:47;;;;;;;;;;;9.00;67.40;;;;;;5075140;28;19920;-68
2021/03/22 11:27:15;;;;;;;;;;;9.00;65.10;;;;;;5074977;28;20297;-68
2021/03/22 11:29:53;;;;;;;;;;;9.00;66.00;;;;;;5074180;28;20026;-69
2021/03/22 11:32:20;;;;;;;;;;;9.00;64.30;;;;;;5074292;28;20018;-68
2021/03/22 11:34:46;;;;;;;;;;;8.90;65.60;;;;;;5074233;28;20380;-69
2021/03/22 11:37:28;;;;;;;;;;;8.90;68.30;;;;;;5073947;28;20019;-68
2021/03/22 11:39:56;;;;;;;;;;;9.00;67.60;;;;;;5074722;28;19940;-68
2021/03/22 11:42:29;;;;;;;;;;;9.00;68.60;;;;;;5074738;28;19920;-68
2021/03/22 11:44:55;;;;;;;;;;;9.10;64.60;;;;;;5074006;28;20023;-69
2021/03/22 11:47:38;;;;;;;;;;;9.00;64.30;;;;;;5074903;28;20336;-68
2021/03/22 11:50:23;;;;;;;;;;;9.00;66.00;;;;;;5074412;28;20425;-72
2021/03/22 11:53:01;;;;;;;;;;;9.00;68.40;;;;;;5074398;28;19920;-71
2021/03/22 11:55:29;;;;;;;;;;;9.10;68.70;;;;;;5090325;28;19924;-68
2021/03/22 11:57:54;;;;;;;;;;;9.00;64.20;;;;;;5073765;28;19920;-68
2021/03/22 12:00:20;;;;;;;;;;;8.90;65.90;;;;;;5074293;28;19931;-69
2021/03/22 12:02:45;;;;;;;;;;;8.80;69.40;;;;;;5074124;28;19973;-69
2021/03/22 12:05:30;;;;;;;;;;;8.90;69.10;;;;;;5073507;28;19920;-68
2021/03/22 12:07:56;;;;;;;;;;;9.00;70.10;;;;;;5074053;28;19939;-68
2021/03/22 12:10:27;;;;;;;;;;;9.10;70.30;;;;;;5074371;28;20007;-68
2021/03/22 12:12:57;;;;;;;;;;;9.20;70.70;;;;;;5073306;28;19954;-69
2021/03/22 12:15:23;;;;;;;;;;;9.30;69.90;;;;;;5072962;28;19927;-69
2021/03/22 12:17:56;;;;;;;;;;;9.30;69.80;;;;;;5073735;28;19920;-68
2021/03/22 12:20:24;;;;;;;;;;;9.40;69.20;;;;;;5072938;28;19924;-69
2021/03/22 12:22:49;;;;;;;;;;;9.40;69.90;;;;;;5073476;28;19967;-68
2021/03/22 12:25:16;;;;;;;;;;;9.30;70.90;;;;;;5073429;28;19966;-68
2021/03/22 12:27:42;;;;;;;;;;;9.30;70.60;;;;;;5072380;28;20376;-67
2021/03/22 12:30:08;;;;;;;;;;;9.30;70.90;;;;;;5073554;28;19920;-70
2021/03/22 12:32:34;;;;;;;;;;;9.20;69.70;;;;;;5072810;28;20003;-70
2021/03/22 12:34:59;;;;;;;;;;;9.10;69.50;;;;;;5073520;28;20190;-68
2021/03/22 12:37:25;;;;;;;;;;;9.10;70.70;;;;;;5073379;28;19947;-68
2021/03/22 12:39:50;;;;;;;;;;;9.00;70.40;;;;;;5072872;28;20371;-68
2021/03/22 12:42:18;;;;;;;;;;;9.00;71.50;;;;;;5073364;28;20389;-68
2021/03/22 12:44:43;;;;;;;;;;;9.00;72.20;;;;;;5073282;28;19924;-67
2021/03/22 12:47:11;;;;;;;;;;;9.00;72.20;;;;;;5072215;28;20378;-68
2021/03/22 12:49:36;;;;;;;;;;;9.00;72.10;;;;;;5073232;28;20396;-68
2021/03/22 12:52:02;;;;;;;;;;;9.00;72.00;;;;;;5072517;28;19920;-70
2021/03/22 12:54:27;;;;;;;;;;;8.90;72.30;;;;;;5072790;28;19920;-69
2021/03/22 12:56:53;;;;;;;;;;;8.90;72.20;;;;;;5072941;28;19956;-68
2021/03/22 12:59:21;;;;;;;;;;;8.90;71.90;;;;;;5073081;28;20351;-69
2021/03/22 13:01:47;;;;;;;;;;;8.90;70.70;;;;;;5072238;28;19924;-69
2021/03/22 13:04:12;;;;;;;;;;;8.90;71.00;;;;;;5072918;28;19996;-69
2021/03/22 13:06:38;;;;;;;;;;;8.90;71.30;;;;;;5073368;28;19920;-68
2021/03/22 13:09:04;;;;;;;;;;;8.90;70.70;;;;;;5072416;28;19923;-69
2021/03/22 13:11:29;;;;;;;;;;;8.80;70.60;;;;;;5073244;28;19924;-69
2021/03/22 13:13:55;;;;;;;;;;;8.90;70.50;;;;;;5072739;28;19920;-68
2021/03/22 13:16:20;;;;;;;;;;;8.80;70.50;;;;;;5071974;28;19924;-67
2021/03/22 13:18:47;;;;;;;;;;;8.80;70.00;;;;;;5072477;28;19920;-67
2021/03/22 13:21:14;;;;;;;;;;;8.80;69.90;;;;;;5072444;28;19920;-70
2021/03/22 13:23:40;;;;;;;;;;;8.70;69.30;;;;;;5071886;28;19920;-69
2021/03/22 13:26:06;;;;;;;;;;;8.70;68.70;;;;;;5072579;28;20315;-67
2021/03/22 13:28:33;;;;;;;;;;;8.70;68.50;;;;;;5072476;28;19927;-69
2021/03/22 13:31:00;;;;;;;;;;;8.70;69.70;;;;;;5071402;28;20381;-66
2021/03/22 13:33:27;;;;;;;;;;;8.60;69.40;;;;;;5072554;28;19920;-68
2021/03/22 13:35:53;;;;;;;;;;;8.60;69.40;;;;;;5071879;28;19932;-67
2021/03/22 13:38:23;;;;;;;;;;;8.70;69.70;;;;;;5072296;28;20430;-67
2021/03/22 13:40:49;;;;;;;;;;;8.60;70.80;;;;;;5072094;28;19921;-67
2021/03/22 13:43:16;;;;;;;;;;;8.80;70.90;;;;;;5071482;28;19966;-66
2021/03/22 13:45:42;;;;;;;;;;;8.80;69.50;;;;;;5072226;28;20034;-72
2021/03/22 13:48:11;;;;;;;;;;;8.80;68.40;;;;;;5072157;28;20416;-67
2021/03/22 13:50:37;;;;;;;;;;;8.80;69.10;;;;;;5071450;28;20318;-66
2021/03/22 13:53:03;;;;;;;;;;;8.70;69.40;;;;;;5071656;28;20373;-66